createdAt,value
2018-05-12T00:01:51.329Z,61.90
2018-05-12T00:04:18.941Z,61.90
2018-05-12T00:06:46.503Z,62.10
2018-05-12T00:09:14.118Z,62.10
2018-05-12T00:11:41.768Z,61.80
2018-05-12T00:14:09.358Z,61.40
2018-05-12T00:16:37.691Z,61.40
2018-05-12T00:19:05.286Z,60.80
2018-05-12T00:21:32.876Z,60.60
2018-05-12T00:24:01.211Z,60.30
2018-05-12T00:26:28.836Z,60.30
2018-05-12T00:28:56.423Z,60.20
2018-05-12T00:31:24.015Z,60.50
2018-05-12T00:33:51.609Z,60.70
2018-05-12T00:36:19.989Z,60.60
2018-05-12T00:38:47.606Z,60.60
2018-05-12T00:41:15.179Z,60.60
2018-05-12T00:43:42.800Z,60.30
2018-05-12T00:46:10.390Z,59.60
2018-05-12T00:48:38.019Z,60.30
2018-05-12T00:51:05.588Z,60.50
2018-05-12T00:53:33.179Z,60.30
2018-05-12T00:56:00.746Z,59.90
2018-05-12T00:58:29.122Z,59.60
2018-05-12T01:00:56.738Z,59.40
2018-05-12T01:03:24.297Z,60.30
2018-05-12T01:05:51.910Z,59.60
2018-05-12T01:08:20.239Z,58.60
2018-05-12T01:10:47.821Z,59.20
2018-05-12T01:13:15.440Z,59.20
2018-05-12T01:15:43.034Z,59.50
2018-05-12T01:18:10.622Z,59.50
2018-05-12T01:20:38.214Z,59.30
2018-05-12T01:23:05.774Z,59.40
2018-05-12T01:25:33.343Z,59.30
2018-05-12T01:28:00.935Z,59.20
2018-05-12T01:30:28.554Z,58.90
2018-05-12T01:32:56.882Z,58.90
2018-05-12T01:35:24.470Z,58.80
2018-05-12T01:37:52.063Z,59.00
2018-05-12T01:40:19.623Z,59.10
2018-05-12T01:42:47.271Z,59.00
2018-05-12T01:45:15.622Z,58.50
2018-05-12T01:47:43.215Z,58.50
2018-05-12T01:50:11.550Z,58.30
2018-05-12T01:52:39.134Z,58.30
2018-05-12T01:55:06.703Z,58.10
2018-05-12T01:57:35.112Z,58.80
2018-05-12T02:00:02.718Z,58.70
2018-05-12T02:02:30.283Z,58.50
2018-05-12T02:04:57.870Z,58.40
2018-05-12T02:07:26.234Z,59.10
2018-05-12T02:09:53.827Z,58.40
2018-05-12T02:12:21.435Z,58.40
2018-05-12T02:14:48.999Z,58.40
2018-05-12T02:17:16.614Z,58.50
2018-05-12T02:19:44.209Z,58.40
2018-05-12T02:22:11.802Z,58.50
2018-05-12T02:24:39.419Z,58.70
2018-05-12T02:27:06.978Z,59.00
2018-05-12T02:29:34.590Z,59.60
2018-05-12T02:32:02.942Z,59.90
2018-05-12T02:34:30.535Z,59.20
2018-05-12T02:36:58.935Z,59.40
2018-05-12T02:39:26.507Z,59.40
2018-05-12T02:41:54.116Z,59.50
2018-05-12T02:44:21.705Z,59.20
2018-05-12T02:46:50.058Z,58.80
2018-05-12T02:49:17.642Z,58.80
2018-05-12T02:51:46.008Z,58.70
2018-05-12T02:54:13.583Z,58.70
2018-05-12T02:56:41.951Z,58.90
2018-05-12T02:59:10.337Z,59.50
2018-05-12T03:01:37.986Z,58.70
2018-05-12T03:04:05.873Z,58.50
2018-05-12T03:06:34.207Z,58.00
2018-05-12T03:09:01.842Z,57.90
2018-05-12T03:11:29.408Z,58.00
2018-05-12T03:13:57.023Z,58.10
2018-05-12T03:16:25.357Z,57.90
2018-05-12T03:18:52.950Z,57.90
2018-05-12T03:21:20.546Z,58.00
2018-05-12T03:23:48.158Z,57.70
2018-05-12T03:26:15.746Z,57.40
2018-05-12T03:28:44.109Z,58.40
2018-05-12T03:31:11.734Z,57.60
2018-05-12T03:33:39.326Z,57.50
2018-05-12T03:36:06.938Z,57.60
2018-05-12T03:38:34.499Z,57.60
2018-05-12T03:41:02.082Z,57.40
2018-05-12T03:43:29.650Z,57.20
2018-05-12T03:45:57.288Z,57.20
2018-05-12T03:48:24.853Z,57.20
2018-05-12T03:50:52.419Z,57.30
2018-05-12T03:53:20.035Z,57.50
2018-05-12T03:55:48.364Z,57.50
2018-05-12T03:58:15.954Z,57.30
2018-05-12T04:00:43.542Z,57.10
2018-05-12T04:03:11.899Z,57.20
2018-05-12T04:05:51.410Z,57.00
2018-05-12T04:08:30.940Z,57.20
2018-05-12T04:11:10.339Z,57.60
2018-05-12T04:13:38.693Z,57.80
2018-05-12T04:16:07.124Z,57.80
2018-05-12T04:18:34.743Z,57.60
2018-05-12T04:21:02.345Z,57.50
2018-05-12T04:23:29.979Z,57.70
2018-05-12T04:25:58.346Z,57.80
2018-05-12T04:28:25.938Z,57.80
2018-05-12T04:30:53.559Z,57.90
2018-05-12T04:33:21.191Z,58.10
2018-05-12T04:35:48.785Z,58.10
2018-05-12T04:38:16.381Z,58.10
2018-05-12T04:40:44.757Z,58.30
2018-05-12T04:43:13.194Z,58.40
2018-05-12T04:45:40.766Z,58.40
2018-05-12T04:48:09.179Z,58.80
2018-05-12T04:50:36.785Z,58.60
2018-05-12T04:53:04.397Z,58.90
2018-05-12T04:55:32.751Z,59.10
2018-05-12T04:58:00.338Z,59.10
2018-05-12T05:00:28.714Z,59.40
2018-05-12T05:02:57.050Z,59.50
2018-05-12T05:05:24.669Z,59.50
2018-05-12T05:07:52.229Z,59.60
2018-05-12T05:10:19.823Z,59.70
2018-05-12T05:12:47.438Z,59.70
2018-05-12T05:15:15.847Z,59.80
2018-05-12T05:17:44.206Z,60.10
2018-05-12T05:20:12.559Z,60.50
2018-05-12T05:22:41.829Z,60.50
2018-05-12T05:25:09.450Z,60.90
2018-05-12T05:27:37.015Z,61.20
2018-05-12T05:30:04.634Z,61.50
2018-05-12T05:32:32.222Z,61.90
2018-05-12T05:35:00.576Z,62.90
2018-05-12T05:37:28.216Z,62.80
2018-05-12T05:39:55.786Z,63.20
2018-05-12T05:42:23.487Z,63.50
2018-05-12T05:44:51.819Z,64.30
2018-05-12T05:47:19.406Z,64.30
2018-05-12T05:49:47.027Z,64.70
2018-05-12T05:52:14.613Z,64.90
2018-05-12T05:54:42.235Z,65.10
2018-05-12T05:57:09.822Z,65.30
2018-05-12T05:59:37.457Z,65.40
2018-05-12T06:02:05.058Z,65.50
2018-05-12T06:04:32.678Z,65.50
2018-05-12T06:07:01.101Z,66.50
2018-05-12T06:09:28.682Z,65.70
2018-05-12T06:11:56.279Z,65.60
2018-05-12T06:14:23.890Z,65.70
2018-05-12T06:16:51.482Z,66.10
2018-05-12T06:19:19.843Z,66.40
2018-05-12T06:21:47.467Z,66.40
2018-05-12T06:24:15.068Z,66.50
2018-05-12T06:26:42.664Z,66.50
2018-05-12T06:29:10.258Z,66.70
2018-05-12T06:31:38.638Z,68.10
2018-05-12T06:34:07.026Z,68.40
2018-05-12T06:36:35.414Z,68.60
2018-05-12T06:39:03.043Z,68.60
2018-05-12T06:41:30.634Z,69.30
2018-05-12T06:43:58.234Z,69.60
2018-05-12T06:46:26.620Z,69.50
2018-05-12T06:48:54.234Z,69.50
2018-05-12T06:51:21.862Z,69.50
2018-05-12T06:53:50.188Z,69.60
2018-05-12T06:56:17.746Z,69.50
2018-05-12T06:58:45.361Z,69.70
2018-05-12T07:01:13.014Z,69.70
2018-05-12T07:03:40.583Z,70.20
2018-05-12T07:06:08.175Z,70.70
2018-05-12T07:08:35.770Z,70.90
2018-05-12T07:11:04.163Z,70.80
2018-05-12T07:13:32.551Z,71.00
2018-05-12T07:16:00.142Z,71.00
2018-05-12T07:18:27.746Z,71.00
2018-05-12T07:20:56.110Z,71.50
2018-05-12T07:23:23.702Z,71.00
2018-05-12T07:25:52.050Z,71.00
2018-05-12T07:28:19.611Z,70.90
2018-05-12T07:30:47.225Z,70.90
2018-05-12T07:33:14.795Z,71.20
2018-05-12T07:35:42.441Z,72.10
2018-05-12T07:38:10.036Z,71.10
2018-05-12T07:40:37.662Z,71.10
2018-05-12T07:43:05.239Z,71.00
2018-05-12T07:45:32.965Z,71.00
2018-05-12T07:48:00.571Z,71.20
2018-05-12T07:50:28.171Z,71.40
2018-05-12T07:52:56.567Z,71.80
2018-05-12T07:55:24.934Z,71.50
2018-05-12T07:57:53.266Z,71.70
2018-05-12T08:00:20.870Z,71.70
2018-05-12T08:02:49.195Z,71.90
2018-05-12T08:05:16.805Z,71.60
2018-05-12T08:07:44.399Z,71.30
2018-05-12T08:10:12.019Z,71.80
2018-05-12T08:12:39.638Z,71.80
2018-05-12T08:15:07.207Z,71.90
2018-05-12T08:17:34.805Z,72.00
2018-05-12T08:20:02.367Z,72.10
2018-05-12T08:22:29.953Z,72.20
2018-05-12T08:24:58.311Z,72.20
2018-05-12T08:27:25.935Z,72.20
2018-05-12T08:29:53.523Z,72.10
2018-05-12T08:32:21.103Z,71.70
2018-05-12T08:34:49.504Z,71.30
2018-05-12T08:37:17.083Z,71.30
2018-05-12T08:39:44.682Z,71.30
2018-05-12T08:42:12.283Z,70.80
2018-05-12T08:44:39.910Z,71.30
2018-05-12T08:47:07.497Z,71.00
2018-05-12T08:49:35.906Z,71.00
2018-05-12T08:52:03.494Z,71.00
2018-05-12T08:54:31.895Z,71.60
2018-05-12T08:56:59.485Z,71.60
2018-05-12T08:59:27.054Z,71.60
2018-05-12T09:01:54.713Z,71.50
2018-05-12T09:04:22.283Z,71.50
2018-05-12T09:06:49.853Z,71.50
2018-05-12T09:09:18.239Z,71.60
2018-05-12T09:11:45.862Z,71.60
2018-05-12T09:14:14.230Z,71.90
2018-05-12T09:16:42.794Z,71.80
2018-05-12T09:19:10.449Z,71.40
2018-05-12T09:21:38.409Z,71.40
2018-05-12T09:24:06.011Z,71.30
2018-05-12T09:26:33.623Z,71.10
2018-05-12T09:29:01.269Z,71.50
2018-05-12T09:31:29.630Z,71.60
2018-05-12T09:33:57.354Z,71.40
2018-05-12T09:36:24.962Z,71.20
2018-05-12T09:38:53.286Z,71.70
2018-05-12T09:41:20.879Z,71.60
2018-05-12T09:43:49.270Z,71.40
2018-05-12T09:46:16.878Z,71.30
2018-05-12T09:48:44.474Z,70.70
2018-05-12T09:51:12.894Z,71.60
2018-05-12T09:53:40.616Z,71.40
2018-05-12T09:56:08.960Z,71.50
2018-05-12T09:58:36.690Z,71.50
2018-05-12T10:01:04.298Z,69.50
2018-05-12T10:03:31.994Z,70.30
2018-05-12T10:05:59.528Z,70.50
2018-05-12T10:08:27.886Z,70.70
2018-05-12T10:10:55.477Z,70.60
2018-05-12T10:13:23.045Z,71.00
2018-05-12T10:15:50.662Z,71.10
2018-05-12T10:18:18.225Z,71.20
2018-05-12T10:20:45.792Z,71.20
2018-05-12T10:23:13.410Z,71.20
2018-05-12T10:25:41.014Z,71.10
2018-05-12T10:28:08.615Z,70.70
2018-05-12T10:30:36.206Z,70.70
2018-05-12T10:33:04.616Z,70.70
2018-05-12T10:35:32.182Z,70.20
2018-05-12T10:37:59.773Z,70.50
2018-05-12T10:40:27.364Z,70.50
2018-05-12T10:42:54.949Z,70.50
2018-05-12T10:45:23.314Z,70.40
2018-05-12T10:47:51.715Z,69.50
2018-05-12T10:50:19.270Z,69.50
2018-05-12T10:52:46.840Z,68.60
2018-05-12T10:55:14.434Z,68.80
2018-05-12T10:57:42.763Z,68.30
2018-05-12T11:00:10.350Z,68.30
2018-05-12T11:02:37.943Z,68.20
2018-05-12T11:05:07.207Z,67.80
2018-05-12T11:07:34.794Z,67.70
2018-05-12T11:10:03.171Z,65.30
2018-05-12T11:12:31.594Z,64.70
2018-05-12T11:14:59.155Z,64.60
2018-05-12T11:17:26.738Z,65.90
2018-05-12T11:19:55.868Z,69.60
2018-05-12T11:22:23.507Z,68.70
2018-05-12T11:24:51.863Z,69.60
2018-05-12T11:27:19.462Z,69.60
2018-05-12T11:29:47.074Z,69.70
2018-05-12T11:32:14.702Z,69.50
2018-05-12T11:34:42.332Z,68.30
2018-05-12T11:37:09.948Z,66.20
2018-05-12T11:39:37.548Z,66.20
2018-05-12T11:42:05.929Z,67.00
2018-05-12T11:44:33.619Z,67.00
2018-05-12T11:47:01.102Z,67.40
2018-05-12T11:49:28.692Z,68.80
2018-05-12T11:51:57.050Z,70.20
2018-05-12T11:54:24.659Z,70.20
2018-05-12T11:56:52.223Z,70.20
2018-05-12T11:59:19.833Z,69.40
2018-05-12T12:01:47.395Z,69.00
2018-05-12T12:04:14.983Z,69.20
2018-05-12T12:06:42.571Z,69.50
2018-05-12T12:09:10.162Z,70.70
2018-05-12T12:11:37.774Z,70.00
2018-05-12T12:14:05.410Z,70.20
2018-05-12T12:16:33.827Z,70.70
2018-05-12T12:19:01.389Z,70.70
2018-05-12T12:21:29.022Z,71.10
2018-05-12T12:23:57.372Z,69.70
2018-05-12T12:26:24.930Z,69.60
2018-05-12T12:28:52.547Z,66.90
2018-05-12T12:31:20.129Z,65.80
2018-05-12T12:33:47.752Z,67.50
2018-05-12T12:36:15.318Z,68.70
2018-05-12T12:38:42.937Z,69.40
2018-05-12T12:41:11.324Z,69.70
2018-05-12T12:43:38.935Z,69.70
2018-05-12T12:46:06.531Z,68.20
2018-05-12T12:48:34.887Z,68.40
2018-05-12T12:51:03.234Z,69.00
2018-05-12T12:53:30.848Z,69.00
2018-05-12T12:55:58.430Z,68.60
2018-05-12T12:58:26.090Z,67.20
2018-05-12T13:00:54.394Z,67.70
2018-05-12T13:03:21.955Z,67.60
2018-05-12T13:05:49.567Z,68.80
2018-05-12T13:08:17.139Z,68.70
2018-05-12T13:10:44.740Z,64.10
2018-05-12T13:13:12.303Z,65.80
2018-05-12T13:15:39.923Z,66.50
2018-05-12T13:18:07.483Z,67.30
2018-05-12T13:20:35.040Z,66.60
2018-05-12T13:23:02.671Z,67.00
2018-05-12T13:25:30.995Z,67.50
2018-05-12T13:27:58.582Z,67.50
2018-05-12T13:30:26.206Z,68.20
2018-05-12T13:32:53.761Z,68.50
2018-05-12T13:35:21.314Z,67.50
2018-05-12T13:37:48.947Z,65.80
2018-05-12T13:40:17.279Z,66.80
2018-05-12T13:42:44.938Z,66.80
2018-05-12T13:45:12.497Z,67.00
2018-05-12T13:47:40.051Z,67.20
2018-05-12T13:50:07.674Z,67.20
2018-05-12T13:52:36.022Z,65.90
2018-05-12T13:55:03.670Z,65.90
2018-05-12T13:57:31.231Z,64.20
2018-05-12T13:59:58.814Z,60.90
2018-05-12T14:02:26.466Z,59.00
2018-05-12T14:04:54.062Z,62.30
2018-05-12T14:07:22.451Z,62.50
2018-05-12T14:09:50.807Z,64.90
2018-05-12T14:12:18.403Z,64.90
2018-05-12T14:14:45.995Z,65.30
2018-05-12T14:17:13.615Z,66.30
2018-05-12T14:19:41.962Z,67.30
2018-05-12T14:22:09.552Z,68.10
2018-05-12T14:24:37.922Z,67.50
2018-05-12T14:27:05.478Z,67.50
2018-05-12T14:29:33.910Z,67.00
2018-05-12T14:32:01.493Z,67.00
2018-05-12T14:34:29.055Z,66.70
2018-05-12T14:36:56.698Z,67.40
2018-05-12T14:39:24.259Z,66.50
2018-05-12T14:41:51.838Z,65.60
2018-05-12T14:44:19.426Z,66.50
2018-05-12T14:46:47.810Z,66.40
2018-05-12T14:49:16.222Z,66.70
2018-05-12T14:51:43.783Z,66.70
2018-05-12T14:54:11.366Z,66.90
2018-05-12T14:56:39.011Z,67.10
2018-05-12T14:59:06.603Z,67.20
2018-05-12T15:01:34.160Z,67.90
2018-05-12T15:04:01.756Z,68.00
2018-05-12T15:06:30.162Z,67.70
2018-05-12T15:08:57.766Z,67.60
2018-05-12T15:11:25.325Z,67.60
2018-05-12T15:13:52.943Z,68.60
2018-05-12T15:16:20.527Z,68.90
2018-05-12T15:18:48.139Z,68.20
2018-05-12T15:21:16.504Z,68.90
2018-05-12T15:23:44.062Z,68.80
2018-05-12T15:26:11.618Z,68.90
2018-05-12T15:28:39.255Z,67.90
2018-05-12T15:31:06.806Z,67.30
2018-05-12T15:33:34.386Z,67.90
2018-05-12T15:36:02.035Z,67.20
2018-05-12T15:38:29.619Z,68.20
2018-05-12T15:40:57.182Z,68.80
2018-05-12T15:43:24.811Z,68.60
2018-05-12T15:45:52.395Z,68.80
2018-05-12T15:48:19.985Z,68.90
2018-05-12T15:50:48.362Z,68.90
2018-05-12T15:53:16.714Z,69.10
2018-05-12T15:55:44.270Z,69.00
2018-05-12T15:58:11.895Z,68.70
2018-05-12T16:00:39.478Z,68.70
2018-05-12T16:03:07.089Z,68.70
2018-05-12T16:05:35.449Z,69.00
2018-05-12T16:08:03.063Z,69.00
2018-05-12T16:10:30.651Z,69.30
2018-05-12T16:12:58.234Z,69.20
2018-05-12T16:15:25.861Z,69.20
2018-05-12T16:17:53.452Z,69.00
2018-05-12T16:20:21.020Z,68.60
2018-05-12T16:22:49.431Z,65.90
2018-05-12T16:25:16.986Z,65.80
2018-05-12T16:27:44.569Z,66.00
2018-05-12T16:30:12.189Z,66.40
2018-05-12T16:32:40.547Z,68.20
2018-05-12T16:35:08.111Z,68.20
2018-05-12T16:37:35.726Z,68.80
2018-05-12T16:40:03.286Z,69.00
2018-05-12T16:42:30.847Z,69.20
2018-05-12T16:44:58.490Z,69.20
2018-05-12T16:47:26.079Z,69.00
2018-05-12T16:49:53.634Z,69.20
2018-05-12T16:52:21.994Z,68.20
2018-05-12T16:54:49.549Z,67.60
2018-05-12T16:57:17.169Z,66.90
2018-05-12T16:59:44.755Z,67.00
2018-05-12T17:02:12.375Z,67.50
2018-05-12T17:04:39.931Z,67.90
2018-05-12T17:07:08.283Z,68.30
2018-05-12T17:09:35.880Z,68.30
2018-05-12T17:12:03.482Z,68.30
2018-05-12T17:14:31.103Z,68.20
2018-05-12T17:16:58.687Z,68.10
2018-05-12T17:19:26.270Z,68.30
2018-05-12T17:21:54.649Z,68.10
2018-05-12T17:24:23.012Z,68.00
2018-05-12T17:26:50.616Z,68.00
2018-05-12T17:29:18.203Z,68.20
2018-05-12T17:31:45.855Z,68.40
2018-05-12T17:34:13.419Z,68.30
2018-05-12T17:36:41.007Z,68.50
2018-05-12T17:39:08.610Z,68.70
2018-05-12T17:41:36.174Z,68.90
2018-05-12T17:44:03.800Z,69.00
2018-05-12T17:46:31.359Z,68.80
2018-05-12T17:48:58.923Z,68.90
2018-05-12T17:51:26.542Z,68.70
2018-05-12T17:53:54.134Z,68.70
2018-05-12T17:56:21.718Z,68.60
2018-05-12T17:58:50.112Z,68.40
2018-05-12T18:01:17.719Z,68.30
2018-05-12T18:03:45.348Z,68.40
2018-05-12T18:06:12.937Z,68.30
2018-05-12T18:08:40.523Z,68.50
2018-05-12T18:11:08.114Z,68.60
2018-05-12T18:13:36.437Z,68.30
2018-05-12T18:16:04.076Z,68.20
2018-05-12T18:18:31.665Z,68.10
2018-05-12T18:20:59.246Z,68.00
2018-05-12T18:23:26.863Z,67.80
2018-05-12T18:25:54.427Z,67.80
2018-05-12T18:28:21.989Z,67.80
2018-05-12T18:30:49.615Z,67.80
2018-05-12T18:33:17.941Z,68.40
2018-05-12T18:35:45.544Z,67.60
2018-05-12T18:38:13.146Z,67.60
2018-05-12T18:40:40.731Z,67.60
2018-05-12T18:43:08.382Z,67.60
2018-05-12T18:45:35.982Z,68.50
2018-05-12T18:48:03.571Z,67.70
2018-05-12T18:50:31.960Z,67.70
2018-05-12T18:52:59.722Z,67.70
2018-05-12T18:55:27.346Z,67.80
2018-05-12T18:57:54.898Z,67.90
2018-05-12T19:00:22.484Z,67.90
2018-05-12T19:02:50.874Z,68.70
2018-05-12T19:05:19.222Z,67.90
2018-05-12T19:07:46.810Z,67.90
2018-05-12T19:10:15.191Z,67.70
2018-05-12T19:12:42.779Z,68.60
2018-05-12T19:15:10.407Z,67.70
2018-05-12T19:17:37.963Z,67.80
2018-05-12T19:20:05.563Z,67.90
2018-05-12T19:22:33.139Z,67.80
2018-05-12T19:25:00.742Z,67.90
2018-05-12T19:27:28.354Z,67.90
2018-05-12T19:29:55.918Z,67.90
2018-05-12T19:32:23.526Z,67.90
2018-05-12T19:34:51.123Z,67.90
2018-05-12T19:37:18.700Z,67.90
2018-05-12T19:39:46.294Z,67.80
2018-05-12T19:42:13.894Z,67.80
2018-05-12T19:44:41.481Z,67.70
2018-05-12T19:47:09.074Z,67.70
2018-05-12T19:49:36.688Z,67.60
2018-05-12T19:52:04.286Z,67.50
2018-05-12T19:54:31.942Z,67.40
2018-05-12T19:56:59.711Z,67.30
2018-05-12T19:59:27.173Z,67.30
2018-05-12T20:01:54.780Z,67.20
2018-05-12T20:04:22.399Z,67.10
2018-05-12T20:06:49.983Z,67.00
2018-05-12T20:09:18.366Z,66.90
2018-05-12T20:11:46.695Z,66.80
2018-05-12T20:14:14.295Z,66.80
2018-05-12T20:16:41.885Z,66.80
2018-05-12T20:19:09.470Z,66.70
2018-05-12T20:21:37.083Z,66.80
2018-05-12T20:24:04.646Z,67.20
2018-05-12T20:26:32.243Z,67.20
2018-05-12T20:28:59.824Z,67.30
2018-05-12T20:31:27.442Z,67.20
2018-05-12T20:33:55.794Z,67.10
2018-05-12T20:36:23.483Z,67.10
2018-05-12T20:38:51.835Z,66.90
2018-05-12T20:41:19.422Z,66.80
2018-05-12T20:43:47.798Z,67.50
2018-05-12T20:46:15.423Z,66.50
2018-05-12T20:48:43.023Z,66.60
2018-05-12T20:51:10.742Z,66.50
2018-05-12T20:53:38.371Z,66.30
2018-05-12T20:56:05.930Z,66.30
2018-05-12T20:58:33.519Z,66.20
2018-05-12T21:01:01.102Z,66.20
2018-05-12T21:03:29.427Z,66.20
2018-05-12T21:05:56.990Z,66.10
2018-05-12T21:08:24.606Z,66.30
2018-05-12T21:10:52.195Z,66.00
2018-05-12T21:13:19.778Z,65.90
2018-05-12T21:15:48.158Z,65.90
2018-05-12T21:18:16.488Z,66.00
2018-05-12T21:20:44.048Z,65.90
2018-05-12T21:23:11.631Z,66.00
2018-05-12T21:25:39.202Z,65.90
2018-05-12T21:28:06.782Z,65.70
2018-05-12T21:30:34.369Z,65.50
2018-05-12T21:33:01.978Z,65.00
2018-05-12T21:35:29.602Z,65.00
2018-05-12T21:37:57.228Z,64.70
2018-05-12T21:40:24.825Z,64.50
2018-05-12T21:42:52.409Z,64.10
2018-05-12T21:45:20.781Z,63.50
2018-05-12T21:47:48.338Z,63.50
2018-05-12T21:50:15.946Z,63.40
2018-05-12T21:52:44.298Z,63.30
2018-05-12T21:55:11.855Z,63.40
2018-05-12T21:57:39.482Z,63.10
2018-05-12T22:00:07.347Z,63.20
2018-05-12T22:02:34.932Z,63.50
2018-05-12T22:05:02.498Z,63.20
2018-05-12T22:07:30.889Z,63.10
2018-05-12T22:09:58.458Z,63.00
2018-05-12T22:12:26.083Z,63.00
2018-05-12T22:14:53.647Z,62.90
2018-05-12T22:17:21.223Z,62.70
2018-05-12T22:19:48.807Z,62.70
2018-05-12T22:22:17.139Z,62.60
2018-05-12T22:24:44.724Z,62.60
2018-05-12T22:27:12.330Z,62.70
2018-05-12T22:29:40.695Z,62.70
2018-05-12T22:32:08.283Z,62.70
2018-05-12T22:34:35.926Z,62.60
2018-05-12T22:37:03.514Z,62.60
2018-05-12T22:39:31.102Z,62.80
2018-05-12T22:41:58.730Z,63.10
2018-05-12T22:44:26.322Z,62.60
2018-05-12T22:46:53.906Z,62.50
2018-05-12T22:49:21.516Z,62.50
2018-05-12T22:51:49.118Z,62.50
2018-05-12T22:54:16.734Z,62.50
2018-05-12T22:56:44.319Z,62.70
2018-05-12T22:59:11.923Z,62.80
2018-05-12T23:01:39.482Z,62.90
2018-05-12T23:04:07.117Z,63.00
2018-05-12T23:06:34.711Z,63.10
2018-05-12T23:09:02.266Z,63.40
2018-05-12T23:11:29.859Z,63.40
2018-05-12T23:13:57.447Z,63.50
2018-05-12T23:16:25.036Z,63.90
2018-05-12T23:18:52.597Z,64.00
2018-05-12T23:21:20.247Z,63.90
2018-05-12T23:23:47.810Z,64.00
2018-05-12T23:26:15.400Z,63.90
2018-05-12T23:28:43.054Z,64.00
2018-05-12T23:31:10.641Z,64.00
2018-05-12T23:33:39.014Z,64.10
2018-05-12T23:36:07.337Z,64.10
2018-05-12T23:38:34.951Z,64.10
2018-05-12T23:41:03.305Z,64.60
2018-05-12T23:43:30.910Z,64.50
2018-05-12T23:45:58.498Z,64.70
2018-05-12T23:48:26.092Z,64.90
2018-05-12T23:50:53.716Z,65.30
2018-05-12T23:53:21.313Z,65.30
2018-05-12T23:55:48.927Z,65.40
2018-05-12T23:58:16.508Z,65.50
